Snoqualmie River: Carnation station

back to: Snoqualmie river
Carnation station Summary - (NOAA Hydrograph: CRNW1)
flood stage: 54.0 ft
Latest reading:
Sun08/20 09:15 pm 45.38 ft 310 cfs (-40/hr)
Past 24hr max:
Sat08/19 09:15 pm 45.39 ft 320 cfs
Forecasted crests: (published Sun 08/20/17 07:17 am)
Thu08/24 11:00 pm 45.61 ft 566 cfs

Carnation station Details

Latest Readings

Last 100 Readings:
Sun08/20 09:15 pm 45.38 ft 310 cfs
Sun08/20 09:00 pm 45.39 ft 320 cfs
Sun08/20 08:45 pm 45.38 ft 310 cfs
Sun08/20 08:30 pm 45.38 ft 310 cfs
Sun08/20 08:15 pm 45.38 ft 310 cfs
Sun08/20 08:00 pm 45.39 ft 320 cfs
Sun08/20 07:45 pm 45.38 ft 310 cfs
Sun08/20 07:30 pm 45.38 ft 310 cfs
Sun08/20 07:15 pm 45.38 ft 310 cfs
Sun08/20 07:00 pm 45.38 ft 310 cfs
Sun08/20 06:45 pm 45.38 ft 310 cfs
Sun08/20 06:30 pm 45.38 ft 310 cfs
Sun08/20 06:15 pm 45.38 ft 310 cfs
Sun08/20 06:00 pm 45.38 ft 310 cfs
Sun08/20 05:45 pm 45.38 ft 310 cfs
Sun08/20 05:30 pm 45.38 ft 310 cfs
Sun08/20 05:15 pm 45.38 ft 310 cfs
Sun08/20 05:00 pm 45.38 ft 310 cfs
Sun08/20 04:45 pm 45.38 ft 310 cfs
Sun08/20 04:30 pm 45.38 ft 310 cfs
Sun08/20 04:15 pm 45.38 ft 310 cfs
Sun08/20 04:00 pm 45.38 ft 310 cfs
Sun08/20 03:45 pm 45.38 ft 310 cfs
Sun08/20 03:30 pm 45.38 ft 310 cfs
Sun08/20 03:15 pm 45.38 ft 310 cfs
Sun08/20 03:00 pm 45.37 ft 301 cfs
Sun08/20 02:45 pm 45.38 ft 310 cfs
Sun08/20 02:30 pm 45.38 ft 310 cfs
Sun08/20 02:15 pm 45.37 ft 301 cfs
Sun08/20 02:00 pm 45.37 ft 301 cfs
Sun08/20 01:45 pm 45.37 ft 301 cfs
Sun08/20 01:30 pm 45.37 ft 301 cfs
Sun08/20 01:15 pm 45.38 ft 310 cfs
Sun08/20 01:00 pm 45.38 ft 310 cfs
Sun08/20 12:45 pm 45.38 ft 310 cfs
Sun08/20 12:30 pm 45.38 ft 310 cfs
Sun08/20 12:15 pm 45.38 ft 310 cfs
Sun08/20 12:00 pm 45.38 ft 310 cfs
Sun08/20 11:45 am 45.38 ft 310 cfs
Sun08/20 11:30 am 45.38 ft 310 cfs
Sun08/20 11:15 am 45.38 ft 310 cfs
Sun08/20 11:00 am 45.38 ft 310 cfs
Sun08/20 10:45 am 45.38 ft 310 cfs
Sun08/20 10:30 am 45.39 ft 320 cfs
Sun08/20 10:15 am 45.39 ft 320 cfs
Sun08/20 10:00 am 45.39 ft 320 cfs
Sun08/20 09:45 am 45.39 ft 320 cfs
Sun08/20 09:30 am 45.39 ft 320 cfs
Sun08/20 09:15 am 45.39 ft 320 cfs
Sun08/20 09:00 am 45.39 ft 320 cfs
Sun08/20 08:45 am 45.39 ft 320 cfs
Sun08/20 08:30 am 45.39 ft 320 cfs
Sun08/20 08:15 am 45.39 ft 320 cfs
Sun08/20 08:00 am 45.39 ft 320 cfs
Sun08/20 07:45 am 45.39 ft 320 cfs
Sun08/20 07:30 am 45.39 ft 320 cfs
Sun08/20 07:15 am 45.39 ft 320 cfs
Sun08/20 07:00 am 45.39 ft 320 cfs
Sun08/20 06:45 am 45.39 ft 320 cfs
Sun08/20 06:30 am 45.39 ft 320 cfs
Sun08/20 06:15 am 45.39 ft 320 cfs
Sun08/20 06:00 am 45.39 ft 320 cfs
Sun08/20 05:45 am 45.39 ft 320 cfs
Sun08/20 05:30 am 45.39 ft 320 cfs
Sun08/20 05:15 am 45.39 ft 320 cfs
Sun08/20 05:00 am 45.39 ft 320 cfs
Sun08/20 04:45 am 45.39 ft 320 cfs
Sun08/20 04:30 am 45.39 ft 320 cfs
Sun08/20 04:15 am 45.39 ft 320 cfs
Sun08/20 04:00 am 45.39 ft 320 cfs
Sun08/20 03:45 am 45.39 ft 320 cfs
Sun08/20 03:30 am 45.39 ft 320 cfs
Sun08/20 03:15 am 45.39 ft 320 cfs
Sun08/20 03:00 am 45.39 ft 320 cfs
Sun08/20 02:45 am 45.39 ft 320 cfs
Sun08/20 02:30 am 45.39 ft 320 cfs
Sun08/20 02:15 am 45.39 ft 320 cfs
Sun08/20 02:00 am 45.39 ft 320 cfs
Sun08/20 01:45 am 45.39 ft 320 cfs
Sun08/20 01:30 am 45.39 ft 320 cfs
Sun08/20 01:15 am 45.39 ft 320 cfs
Sun08/20 01:00 am 45.39 ft 320 cfs
Sun08/20 12:45 am 45.39 ft 320 cfs
Sun08/20 12:30 am 45.39 ft 320 cfs
Sun08/20 12:15 am 45.39 ft 320 cfs
Sun08/20 12:00 am 45.39 ft 320 cfs
Sat08/19 11:45 pm 45.39 ft 320 cfs
Sat08/19 11:30 pm 45.39 ft 320 cfs
Sat08/19 11:15 pm 45.39 ft 320 cfs
Sat08/19 11:00 pm 45.39 ft 320 cfs
Sat08/19 10:45 pm 45.39 ft 320 cfs
Sat08/19 10:30 pm 45.39 ft 320 cfs
Sat08/19 10:15 pm 45.39 ft 320 cfs
Sat08/19 10:00 pm 45.39 ft 320 cfs
Sat08/19 09:45 pm 45.39 ft 320 cfs
Sat08/19 09:30 pm 45.39 ft 320 cfs
Sat08/19 09:15 pm 45.39 ft 320 cfs
Sat08/19 09:00 pm 45.39 ft 320 cfs
Sat08/19 08:45 pm 45.39 ft 320 cfs
Sat08/19 08:30 pm 45.39 ft 320 cfs

Latest Forecasts

Currently Forecasted Readings:
Sun08/20 11:00 am 45.61 ft 566 cfs
Sun08/20 05:00 pm 45.61 ft 564 cfs
Sun08/20 11:00 pm 45.61 ft 563 cfs
Mon08/21 05:00 am 45.61 ft 562 cfs
Mon08/21 11:00 am 45.61 ft 559 cfs
Mon08/21 05:00 pm 45.6 ft 558 cfs
Mon08/21 11:00 pm 45.6 ft 557 cfs
Tue08/22 05:00 am 45.6 ft 556 cfs
Tue08/22 11:00 am 45.6 ft 554 cfs
Tue08/22 05:00 pm 45.6 ft 553 cfs
Tue08/22 11:00 pm 45.6 ft 552 cfs
Wed08/23 05:00 am 45.6 ft 551 cfs
Wed08/23 11:00 am 45.6 ft 549 cfs
Wed08/23 05:00 pm 45.6 ft 548 cfs
Wed08/23 11:00 pm 45.6 ft 547 cfs
Thu08/24 05:00 am 45.6 ft 551 cfs
Thu08/24 11:00 am 45.6 ft 554 cfs
Thu08/24 05:00 pm 45.6 ft 557 cfs
Thu08/24 11:00 pm 45.61 ft 566 cfs
Fri08/25 05:00 am 45.61 ft 564 cfs
Fri08/25 11:00 am 45.6 ft 556 cfs
Fri08/25 05:00 pm 45.59 ft 546 cfs
Fri08/25 11:00 pm 45.59 ft 542 cfs
Sat08/26 05:00 am 45.59 ft 540 cfs
Sat08/26 11:00 am 45.59 ft 537 cfs
Sat08/26 05:00 pm 45.59 ft 536 cfs
Sat08/26 11:00 pm 45.59 ft 535 cfs
Sun08/27 05:00 am 45.59 ft 534 cfs
Sun08/27 11:00 am 45.58 ft 532 cfs
Sun08/27 05:00 pm 45.58 ft 532 cfs
Sun08/27 11:00 pm 45.58 ft 531 cfs
Mon08/28 05:00 am 45.58 ft 530 cfs
Mon08/28 11:00 am 45.58 ft 529 cfs
Mon08/28 05:00 pm 45.58 ft 528 cfs
Mon08/28 11:00 pm 45.58 ft 528 cfs
Tue08/29 05:00 am 45.58 ft 528 cfs
Tue08/29 11:00 am 45.58 ft 525 cfs
Tue08/29 05:00 pm 45.58 ft 524 cfs
Tue08/29 11:00 pm 45.58 ft 524 cfs
Wed08/30 05:00 am 45.58 ft 531 cfs

Snoqualmie River flood gauge data supplied by the
National Weather Service Northwest River Forecast Center.

Sign up for Floodzilla alerts.